Time;durP1;ratioP1;P1;durP2;ratioP2;P2;SDS_P1;SDS_P2;PMS_P1;PMS_P2;Temp;Humidity;BMP_temperature;BMP_pressure;BME280_temperature;BME280_humidity;BME280_pressure;Samples;Min_cycle;Max_cycle;Signal;HPM_P1;HPM_P2
2022/08/24 00:02:11;;;;;;;6.13;5.72;;;;;;;-141.48;100.00;69781.59;5244268;28;20114;-90
2022/08/24 00:04:42;;;;;;;5.40;4.88;;;;;;;-141.48;100.00;69781.59;5236079;28;20024;-89
2022/08/24 00:07:12;;;;;;;6.10;5.00;;;;;;;-141.48;100.00;69781.59;5232534;28;20475;-89
2022/08/24 00:09:43;;;;;;;4.32;4.03;;;;;;;-141.48;100.00;69781.59;5230012;28;20029;-89
2022/08/24 00:12:14;;;;;;;6.95;6.53;;;;;;;-141.48;100.00;69781.59;5230107;28;20204;-89
2022/08/24 00:14:44;;;;;;;5.63;4.78;;;;;;;-141.48;100.00;69781.59;5248502;28;20026;-89
2022/08/24 00:19:47;;;;;;;7.70;7.20;;;;;;;-141.48;100.00;69781.59;5181413;28;20532;-65
2022/08/24 00:22:18;;;;;;;4.60;4.40;;;;;;;-141.48;100.00;69781.59;5183608;28;20026;-64
2022/08/24 00:24:48;;;;;;;7.57;5.93;;;;;;;-141.48;100.00;69781.59;5183046;28;20397;-64
2022/08/24 00:27:20;;;;;;;5.72;5.43;;;;;;;-141.48;100.00;69781.59;5183080;28;20033;-64
2022/08/24 00:29:50;;;;;;;4.57;4.28;;;;;;;-141.48;100.00;69781.59;5183793;28;20504;-64
2022/08/24 00:32:20;;;;;;;5.80;5.43;;;;;;;-141.48;100.00;69781.59;5184199;28;20065;-64
2022/08/24 00:34:51;;;;;;;11.63;5.50;;;;;;;-141.48;100.00;69781.59;5183412;28;20025;-65
2022/08/24 00:37:22;;;;;;;7.18;6.78;;;;;;;-141.48;100.00;69781.59;5183310;28;20029;-64
2022/08/24 00:39:52;;;;;;;7.28;6.55;;;;;;;-141.48;100.00;69781.59;5183234;28;20030;-64
2022/08/24 00:42:23;;;;;;;6.63;6.07;;;;;;;-141.48;100.00;69781.59;5183644;28;20593;-64
2022/08/24 00:44:54;;;;;;;6.22;5.82;;;;;;;-141.48;100.00;69781.59;5182948;28;20456;-64
2022/08/24 00:47:32;;;;;;;6.78;5.00;;;;;;;-141.48;100.00;69781.59;5183630;28;20054;-64
2022/08/24 00:50:07;;;;;;;7.10;6.55;;;;;;;-141.48;100.00;69781.59;5183350;28;20081;-64
2022/08/24 00:52:41;;;;;;;7.18;6.50;;;;;;;-141.48;100.00;69781.59;5183272;28;20097;-65
2022/08/24 00:55:27;;;;;;;6.50;5.65;;;;;;;-141.48;100.00;69781.59;5182854;28;20029;-65
2022/08/24 00:58:28;;;;;;;5.95;5.55;;;;;;;-141.48;100.00;69781.59;5183323;28;20024;-65
2022/08/24 01:01:02;;;;;;;7.40;6.72;;;;;;;-141.48;100.00;69781.59;5181746;28;20306;-64
2022/08/24 01:03:34;;;;;;;6.07;5.47;;;;;;;-141.48;100.00;69781.59;5182973;28;20029;-67
2022/08/24 01:06:05;;;;;;;5.47;5.05;;;;;;;-141.48;100.00;69781.59;5183547;28;20037;-67
2022/08/24 01:08:35;;;;;;;6.50;6.03;;;;;;;-141.48;100.00;69781.59;5183205;28;20018;-64
2022/08/24 01:11:11;;;;;;;7.68;7.07;;;;;;;-141.48;100.00;69781.59;5182759;28;20033;-64
2022/08/24 01:13:44;;;;;;;5.93;5.47;;;;;;;-141.48;100.00;69781.59;5181280;28;20425;-64
2022/08/24 01:18:48;;;;;;;7.35;6.78;;;;;;;-141.48;100.00;69781.59;5182713;28;20026;-65
2022/08/24 01:19:36;;;;;;;7.38;6.80;;;;;;;-141.48;100.00;69781.59;5182597;28;20044;-64
2022/08/24 01:22:15;;;;;;;9.55;8.75;;;;;;;-141.48;100.00;69781.59;5182896;28;20022;-64
2022/08/24 01:24:46;;;;;;;10.52;9.65;;;;;;;-141.48;100.00;69781.59;5182414;28;20030;-64
2022/08/24 01:27:17;;;;;;;10.82;9.75;;;;;;;-141.48;100.00;69781.59;5182763;28;20470;-64
2022/08/24 01:29:49;;;;;;;9.80;9.10;;;;;;;-141.48;100.00;69781.59;5182819;28;20044;-64
2022/08/24 01:32:23;;;;;;;10.55;9.88;;;;;;;-141.48;100.00;69781.59;5182890;28;20026;-65
2022/08/24 01:34:55;;;;;;;9.77;8.82;;;;;;;-141.48;100.00;69781.59;5182654;28;20393;-65
2022/08/24 01:37:25;;;;;;;12.25;11.07;;;;;;;-141.48;100.00;69781.59;5182908;28;20018;-65
2022/08/24 01:39:57;;;;;;;10.18;9.27;;;;;;;-141.48;100.00;69781.59;5186071;28;20390;-65
2022/08/24 01:42:28;;;;;;;10.02;9.23;;;;;;;-141.48;100.00;69781.59;5186690;28;20030;-64
2022/08/24 01:44:59;;;;;;;10.27;9.40;;;;;;;-141.48;100.00;69781.59;5186570;28;20030;-65
2022/08/24 01:47:30;;;;;;;9.93;8.88;;;;;;;-141.48;100.00;69781.59;5186652;28;20390;-64
2022/08/24 01:50:01;;;;;;;8.35;7.72;;;;;;;-141.48;100.00;69781.59;5186597;28;20029;-64
2022/08/24 01:52:32;;;;;;;10.07;9.38;;;;;;;-141.48;100.00;69781.59;5186851;28;20030;-64
2022/08/24 01:55:05;;;;;;;9.73;8.90;;;;;;;-141.48;100.00;69781.59;5186169;28;20037;-68
2022/08/24 01:57:36;;;;;;;7.38;6.88;;;;;;;-141.48;100.00;69781.59;5186861;28;20017;-65
2022/08/24 02:00:14;;;;;;;10.75;9.77;;;;;;;-141.48;100.00;69781.59;5186734;28;20207;-66
2022/08/24 02:02:45;;;;;;;9.82;8.95;;;;;;;-141.48;100.00;69781.59;5186634;28;20026;-66
2022/08/24 02:05:16;;;;;;;10.63;9.80;;;;;;;-141.48;100.00;69781.59;5186202;28;20042;-66
2022/08/24 02:07:47;;;;;;;9.77;9.07;;;;;;;-141.48;100.00;69781.59;5185419;28;20033;-65
2022/08/24 02:10:18;;;;;;;10.60;9.90;;;;;;;-141.48;100.00;69781.59;5186517;28;20389;-66
2022/08/24 02:12:56;;;;;;;10.10;9.38;;;;;;;-141.48;100.00;69781.59;5186626;28;20105;-66
2022/08/24 02:15:30;;;;;;;9.15;8.50;;;;;;;-141.48;100.00;69781.59;5186295;28;20030;-68
2022/08/24 02:18:00;;;;;;;9.68;8.55;;;;;;;-141.48;100.00;69781.59;5186027;28;20026;-66
2022/08/24 02:20:31;;;;;;;10.88;10.13;;;;;;;-141.48;100.00;69781.59;5186304;28;20104;-66
2022/08/24 02:23:02;;;;;;;11.82;9.57;;;;;;;-141.48;100.00;69781.59;5186201;28;20026;-66
2022/08/24 02:25:32;;;;;;;9.50;8.23;;;;;;;-141.48;100.00;69781.59;5185635;28;20096;-68
2022/08/24 02:28:03;;;;;;;11.18;10.27;;;;;;;-141.48;100.00;69781.59;5185698;28;20026;-66
2022/08/24 02:30:34;;;;;;;10.77;9.55;;;;;;;-141.48;100.00;69781.59;5185508;28;20088;-66
2022/08/24 02:33:06;;;;;;;9.15;8.45;;;;;;;-141.48;100.00;69781.59;5184547;28;20026;-66
2022/08/24 02:35:37;;;;;;;11.25;10.02;;;;;;;-141.48;100.00;69781.59;5185531;28;20022;-65
2022/08/24 02:38:08;;;;;;;8.20;7.50;;;;;;;-141.48;100.00;69781.59;5185904;28;20036;-68
2022/08/24 02:40:39;;;;;;;8.50;7.90;;;;;;;-141.48;100.00;69781.59;5185293;28;20092;-66
2022/08/24 02:43:09;;;;;;;9.90;9.20;;;;;;;-141.48;100.00;69781.59;5184282;28;20033;-66
2022/08/24 02:45:43;;;;;;;9.23;8.30;;;;;;;-141.48;100.00;69781.59;5184718;28;20109;-65
2022/08/24 02:48:13;;;;;;;8.75;8.18;;;;;;;-141.48;100.00;69781.59;5185641;28;20036;-65
2022/08/24 02:50:46;;;;;;;10.40;9.57;;;;;;;-141.48;100.00;69781.59;5185256;28;20026;-65
2022/08/24 02:53:19;;;;;;;9.00;8.27;;;;;;;-141.48;100.00;69781.59;5183659;28;20030;-65
2022/08/24 02:55:49;;;;;;;10.55;8.75;;;;;;;-141.48;100.00;69781.59;5184032;28;20091;-65
2022/08/24 02:58:20;;;;;;;9.30;8.50;;;;;;;-141.48;100.00;69781.59;5185430;28;20018;-65
2022/08/24 03:00:50;;;;;;;8.18;7.47;;;;;;;-141.48;100.00;69781.59;5185365;28;20294;-65
2022/08/24 03:03:21;;;;;;;9.52;8.82;;;;;;;-141.48;100.00;69781.59;5185095;28;20106;-64
2022/08/24 03:05:51;;;;;;;8.23;7.72;;;;;;;-141.48;100.00;69781.59;5184639;28;20018;-64
2022/08/24 03:08:22;;;;;;;9.98;9.30;;;;;;;-141.48;100.00;69781.59;5184712;28;20023;-63
2022/08/24 03:10:52;;;;;;;10.25;9.45;;;;;;;-141.48;100.00;69781.59;5185216;28;20024;-64
2022/08/24 03:13:23;;;;;;;7.38;6.88;;;;;;;-141.48;100.00;69781.59;5184806;28;20025;-65
2022/08/24 03:15:56;;;;;;;7.70;7.20;;;;;;;-141.48;100.00;69781.59;5185354;28;20025;-66
2022/08/24 03:18:27;;;;;;;8.57;7.88;;;;;;;-141.48;100.00;69781.59;5184452;28;20036;-64
2022/08/24 03:21:01;;;;;;;8.20;7.38;;;;;;;-141.48;100.00;69781.59;5182853;28;20490;-64
2022/08/24 03:23:32;;;;;;;7.95;7.22;;;;;;;-141.48;100.00;69781.59;5184082;28;20061;-64
2022/08/24 03:26:03;;;;;;;8.57;7.90;;;;;;;-141.48;100.00;69781.59;5185162;28;20028;-64
2022/08/24 03:28:33;;;;;;;7.25;6.75;;;;;;;-141.48;100.00;69781.59;5184673;28;20390;-65
2022/08/24 03:31:04;;;;;;;8.07;7.43;;;;;;;-141.48;100.00;69781.59;5183369;28;20033;-66
2022/08/24 03:33:34;;;;;;;9.55;8.85;;;;;;;-141.48;100.00;69781.59;5184375;28;20053;-66
2022/08/24 03:36:05;;;;;;;7.80;7.28;;;;;;;-141.48;100.00;69781.59;5184332;28;20061;-66
2022/08/24 03:38:36;;;;;;;8.25;7.40;;;;;;;-141.48;100.00;69781.59;5183583;28;20014;-65
2022/08/24 03:41:06;;;;;;;7.25;6.75;;;;;;;-141.48;100.00;69781.59;5184964;28;20033;-65
2022/08/24 03:43:50;;;;;;;9.95;8.27;;;;;;;-141.48;100.00;69781.59;5183908;28;20037;-66
2022/08/24 03:46:25;;;;;;;11.15;10.15;;;;;;;-141.48;100.00;69781.59;5183277;28;20033;-65
2022/08/24 03:48:57;;;;;;;8.82;8.13;;;;;;;-141.48;100.00;69781.59;5183888;28;20505;-65
2022/08/24 03:51:27;;;;;;;8.10;7.50;;;;;;;-141.48;100.00;69781.59;5185151;28;20036;-66
2022/08/24 03:53:59;;;;;;;6.45;5.85;;;;;;;-141.48;100.00;69781.59;5183997;28;20029;-65
2022/08/24 03:56:29;;;;;;;9.30;8.50;;;;;;;-141.48;100.00;69781.59;5184689;28;20099;-69
2022/08/24 03:59:00;;;;;;;7.47;6.88;;;;;;;-141.48;100.00;69781.59;5184361;28;20251;-65
2022/08/24 04:01:30;;;;;;;7.65;7.05;;;;;;;-141.48;100.00;69781.59;5183561;28;20022;-66
2022/08/24 04:04:00;;;;;;;6.65;6.20;;;;;;;-141.48;100.00;69781.59;5183892;28;20040;-66
2022/08/24 04:06:31;;;;;;;6.18;5.72;;;;;;;-141.48;100.00;69781.59;5184100;28;20075;-64
2022/08/24 04:09:03;;;;;;;7.40;7.00;;;;;;;-141.48;100.00;69781.59;5184068;28;20037;-65
2022/08/24 04:11:33;;;;;;;7.28;6.68;;;;;;;-141.48;100.00;69781.59;5184247;28;20112;-65
2022/08/24 04:14:04;;;;;;;7.57;7.03;;;;;;;-141.48;100.00;69781.59;5183816;28;20148;-66
2022/08/24 04:16:35;;;;;;;9.30;8.40;;;;;;;-141.48;100.00;69781.59;5182788;28;20440;-66
2022/08/24 04:19:05;;;;;;;7.80;7.30;;;;;;;-141.48;100.00;69781.59;5182666;28;20026;-65
2022/08/24 04:21:36;;;;;;;9.02;7.55;;;;;;;-141.48;100.00;69781.59;5184062;28;20401;-64
2022/08/24 04:24:08;;;;;;;7.90;7.30;;;;;;;-141.48;100.00;69781.59;5183751;28;20037;-66
2022/08/24 04:26:40;;;;;;;8.00;6.75;;;;;;;-141.48;100.00;69781.59;5183327;28;20037;-66
2022/08/24 04:29:13;;;;;;;8.40;7.80;;;;;;;-141.48;100.00;69781.59;5184474;28;20103;-67
2022/08/24 04:31:44;;;;;;;9.90;8.13;;;;;;;-141.48;100.00;69781.59;5184464;28;20033;-66
2022/08/24 04:34:16;;;;;;;8.23;7.28;;;;;;;-141.48;100.00;69781.59;5182191;28;20022;-65
2022/08/24 04:36:47;;;;;;;8.63;7.90;;;;;;;-141.48;100.00;69781.59;5183723;28;20085;-66
2022/08/24 04:39:17;;;;;;;9.55;8.60;;;;;;;-141.48;100.00;69781.59;5183745;28;20064;-66
2022/08/24 04:41:47;;;;;;;10.32;9.52;;;;;;;-141.48;100.00;69781.59;5183721;28;20397;-66
2022/08/24 04:44:18;;;;;;;10.68;9.80;;;;;;;-141.48;100.00;69781.59;5183773;28;20037;-66
2022/08/24 04:46:48;;;;;;;8.55;7.95;;;;;;;-141.48;100.00;69781.59;5183842;28;20022;-66
2022/08/24 04:49:19;;;;;;;9.23;8.60;;;;;;;-141.48;100.00;69781.59;5177197;28;20037;-66
2022/08/24 04:51:49;;;;;;;10.18;8.95;;;;;;;-141.48;100.00;69781.59;5181585;28;20493;-65
2022/08/24 04:54:19;;;;;;;9.07;8.48;;;;;;;-141.48;100.00;69781.59;5181561;28;20136;-65
2022/08/24 04:56:50;;;;;;;12.40;10.68;;;;;;;-141.48;100.00;69781.59;5183541;28;20032;-66
2022/08/24 04:59:20;;;;;;;11.35;10.18;;;;;;;-141.48;100.00;69781.59;5182730;28;20022;-66
2022/08/24 05:01:51;;;;;;;10.27;9.27;;;;;;;-141.48;100.00;69781.59;5183539;28;20022;-66
2022/08/24 05:04:21;;;;;;;9.10;8.20;;;;;;;-141.48;100.00;69781.59;5182636;28;20033;-67
2022/08/24 05:06:51;;;;;;;13.13;9.15;;;;;;;-141.48;100.00;69781.59;5181686;28;20398;-66
2022/08/24 05:09:22;;;;;;;9.85;8.82;;;;;;;-141.48;100.00;69781.59;5183235;28;20022;-65
2022/08/24 05:11:54;;;;;;;10.10;9.20;;;;;;;-141.48;100.00;69781.59;5183128;28;20030;-66
2022/08/24 05:14:26;;;;;;;11.98;10.98;;;;;;;-141.48;100.00;69781.59;5182733;28;20493;-65
2022/08/24 05:16:56;;;;;;;12.38;11.35;;;;;;;-141.48;100.00;69781.59;5181983;28;20218;-65
2022/08/24 05:19:27;;;;;;;18.52;11.93;;;;;;;-141.48;100.00;69781.59;5182528;28;20065;-65
2022/08/24 05:21:57;;;;;;;12.32;11.40;;;;;;;-141.48;100.00;69781.59;5181604;28;20057;-65
2022/08/24 05:24:28;;;;;;;12.15;10.80;;;;;;;-141.48;100.00;69781.59;5182677;28;20096;-66
2022/08/24 05:26:59;;;;;;;15.02;13.55;;;;;;;-141.48;100.00;69781.59;5183053;28;20170;-66
2022/08/24 05:29:32;;;;;;;12.30;11.13;;;;;;;-141.48;100.00;69781.59;5182713;28;20076;-65
2022/08/24 05:32:03;;;;;;;14.90;13.32;;;;;;;-141.48;100.00;69781.59;5175765;28;20097;-70
2022/08/24 05:34:35;;;;;;;16.48;12.75;;;;;;;-141.48;100.00;69781.59;5172528;28;20021;-66
2022/08/24 05:37:05;;;;;;;13.82;12.50;;;;;;;-141.48;100.00;69781.59;5164275;28;20509;-67
2022/08/24 05:39:36;;;;;;;14.00;12.73;;;;;;;-141.48;100.00;69781.59;5177496;28;20030;-65
2022/08/24 05:42:07;;;;;;;15.00;13.80;;;;;;;-141.48;100.00;69781.59;5183414;28;20032;-64
2022/08/24 05:44:37;;;;;;;18.85;16.38;;;;;;;-141.48;100.00;69781.59;5181612;28;20056;-65
2022/08/24 05:47:09;;;;;;;20.27;18.33;;;;;;;-141.48;100.00;69781.59;5177594;28;20506;-64
2022/08/24 05:49:39;;;;;;;20.83;18.77;;;;;;;-141.48;100.00;69781.59;5176800;28;20029;-65
2022/08/24 05:52:10;;;;;;;23.73;21.17;;;;;;;-141.48;100.00;69781.59;5180698;28;20104;-69
2022/08/24 05:54:40;;;;;;;28.00;23.35;;;;;;;-141.48;100.00;69781.59;5180748;28;20405;-66
2022/08/24 05:57:11;;;;;;;23.48;21.48;;;;;;;-141.48;100.00;69781.59;5179445;28;20041;-66
2022/08/24 05:59:41;;;;;;;24.00;21.75;;;;;;;-141.48;100.00;69781.59;5182056;28;20076;-66
2022/08/24 06:02:12;;;;;;;25.15;23.00;;;;;;;-141.48;100.00;69781.59;5183657;28;20030;-66
2022/08/24 06:04:43;;;;;;;27.95;25.80;;;;;;;-141.48;100.00;69781.59;5182059;28;20346;-65
2022/08/24 06:07:14;;;;;;;30.13;27.23;;;;;;;-141.48;100.00;69781.59;5183419;28;20034;-65
2022/08/24 06:09:45;;;;;;;32.97;30.05;;;;;;;-141.48;100.00;69781.59;5183602;28;20029;-68
2022/08/24 06:12:15;;;;;;;33.42;30.02;;;;;;;-141.48;100.00;69781.59;5183680;28;20033;-66
2022/08/24 06:14:46;;;;;;;31.58;28.58;;;;;;;-141.48;100.00;69781.59;5183116;28;20026;-66
2022/08/24 06:17:17;;;;;;;34.53;31.10;;;;;;;-141.48;100.00;69781.59;5183010;28;20124;-64
2022/08/24 06:19:47;;;;;;;35.92;32.72;;;;;;;-141.48;100.00;69781.59;5233876;22;20041;-67
2022/08/24 06:22:17;;;;;;;37.47;30.23;;;;;;;-141.48;100.00;69781.59;5222116;28;20021;-67
2022/08/24 06:27:37;;;;;;;32.80;29.52;;;;;;;-141.48;100.00;69781.59;5226254;28;20032;-67
2022/08/24 06:30:08;;;;;;;31.77;28.55;;;;;;;-141.48;100.00;69781.59;5208814;28;20017;-67
2022/08/24 06:32:42;;;;;;;30.38;27.80;;;;;;;-141.48;100.00;69781.59;5226991;28;20031;-67
2022/08/24 06:35:13;;;;;;;26.42;24.00;;;;;;;-141.48;100.00;69781.59;5226853;28;20021;-67
2022/08/24 06:37:43;;;;;;;26.90;24.80;;;;;;;-141.48;100.00;69781.59;5226714;28;20550;-67
2022/08/24 06:40:14;;;;;;;30.55;27.45;;;;;;;-141.48;100.00;69781.59;5226713;28;20507;-67
2022/08/24 06:42:44;;;;;;;28.42;26.05;;;;;;;-141.48;100.00;69781.59;5227149;28;20099;-67
2022/08/24 06:45:15;;;;;;;34.13;29.95;;;;;;;-141.48;100.00;69781.59;5226933;28;20025;-67
2022/08/24 06:47:45;;;;;;;30.23;27.50;;;;;;;-141.48;100.00;69781.59;5226984;28;20052;-68
2022/08/24 06:50:16;;;;;;;30.42;27.83;;;;;;;-141.48;100.00;69781.59;5226588;28;20082;-67
2022/08/24 06:52:47;;;;;;;33.35;30.23;;;;;;;-141.48;100.00;69781.59;5226659;28;20104;-68
2022/08/24 06:55:17;;;;;;;29.83;27.10;;;;;;;-141.48;100.00;69781.59;5226251;28;20313;-67
2022/08/24 06:57:48;;;;;;;32.60;29.63;;;;;;;-141.48;100.00;69781.59;5226748;28;20047;-68
2022/08/24 07:00:19;;;;;;;28.45;25.77;;;;;;;-141.48;100.00;69781.59;5226821;28;20029;-68
2022/08/24 07:02:50;;;;;;;31.73;28.55;;;;;;;-141.48;100.00;69781.59;5226654;28;20071;-68
2022/08/24 07:05:20;;;;;;;30.63;27.83;;;;;;;-141.48;100.00;69781.59;5225974;28;20075;-68
2022/08/24 07:07:50;;;;;;;30.92;27.88;;;;;;;-141.48;100.00;69781.59;5226342;28;20021;-68
2022/08/24 07:10:21;;;;;;;31.45;28.65;;;;;;;-141.48;100.00;69781.59;5226103;28;20029;-68
2022/08/24 07:12:51;;;;;;;29.08;26.50;;;;;;;-141.48;100.00;69781.59;5226280;28;20055;-68
2022/08/24 07:15:23;;;;;;;30.25;27.20;;;;;;;-141.48;100.00;69781.59;5226118;28;20469;-68
2022/08/24 07:17:53;;;;;;;29.48;26.98;;;;;;;-141.48;100.00;69781.59;5226077;28;20025;-68
2022/08/24 07:20:24;;;;;;;25.70;23.40;;;;;;;-141.48;100.00;69781.59;5226099;28;20017;-67
2022/08/24 07:22:54;;;;;;;31.85;26.73;;;;;;;-141.48;100.00;69781.59;5226151;28;20112;-67
2022/08/24 07:25:24;;;;;;;24.80;22.45;;;;;;;-141.48;100.00;69781.59;5225860;28;20025;-67
2022/08/24 07:27:55;;;;;;;20.70;19.15;;;;;;;-141.48;100.00;69781.59;5225685;28;20024;-67
2022/08/24 07:30:26;;;;;;;26.02;23.38;;;;;;;-141.48;100.00;69781.59;5225472;28;20070;-67
2022/08/24 07:32:57;;;;;;;26.20;23.60;;;;;;;-141.48;100.00;69781.59;5225819;28;20430;-67
2022/08/24 07:35:31;;;;;;;23.50;21.40;;;;;;;-141.48;100.00;69781.59;5224959;28;20016;-67
2022/08/24 07:38:04;;;;;;;21.88;19.60;;;;;;;-141.48;100.00;69781.59;5225156;28;20350;-66
2022/08/24 07:40:35;;;;;;;24.00;21.80;;;;;;;-141.48;100.00;69781.59;5208113;28;20082;-67
2022/08/24 07:43:05;;;;;;;24.70;22.65;;;;;;;-141.48;100.00;69781.59;5225730;28;20111;-67
2022/08/24 07:45:40;;;;;;;23.73;21.45;;;;;;;-141.48;100.00;69781.59;5225401;28;20031;-67
2022/08/24 07:48:11;;;;;;;20.17;18.38;;;;;;;-141.48;100.00;69781.59;5225321;28;20493;-67
2022/08/24 07:50:41;;;;;;;24.85;22.77;;;;;;;-141.48;100.00;69781.59;5207189;28;20056;-67
2022/08/24 07:53:12;;;;;;;21.85;18.67;;;;;;;-141.48;100.00;69781.59;5207184;28;20025;-67
2022/08/24 07:55:51;;;;;;;19.40;16.52;;;;;;;-141.48;100.00;69781.59;5225105;28;20036;-67
2022/08/24 07:58:23;;;;;;;20.55;18.65;;;;;;;-141.48;100.00;69781.59;5225072;28;20029;-67
2022/08/24 08:00:54;;;;;;;15.93;14.60;;;;;;;-141.48;100.00;69781.59;5225066;28;20040;-66
2022/08/24 08:03:26;;;;;;;19.38;17.42;;;;;;;-141.48;100.00;69781.59;5207214;28;20388;-67
2022/08/24 08:05:57;;;;;;;17.98;16.10;;;;;;;-141.48;100.00;69781.59;5225072;28;20025;-68
2022/08/24 08:08:28;;;;;;;15.30;13.75;;;;;;;-141.48;100.00;69781.59;5225279;28;20025;-67
2022/08/24 08:11:00;;;;;;;15.75;14.15;;;;;;;-141.48;100.00;69781.59;5225364;28;20462;-67
2022/08/24 08:13:31;;;;;;;15.30;13.65;;;;;;;-141.48;100.00;69781.59;5225148;28;20032;-67
2022/08/24 08:16:02;;;;;;;14.75;13.73;;;;;;;-141.48;100.00;69781.59;5206891;28;20056;-67
2022/08/24 08:18:33;;;;;;;12.75;11.63;;;;;;;-141.48;100.00;69781.59;5224728;28;20353;-67
2022/08/24 08:21:05;;;;;;;11.82;10.85;;;;;;;-141.48;100.00;69781.59;5224964;28;20040;-68
2022/08/24 08:26:24;;;;;;;11.50;10.70;;;;;;;-141.48;100.00;69781.59;5224582;28;20051;-67
2022/08/24 08:28:54;;;;;;;12.55;11.55;;;;;;;-141.48;100.00;69781.59;5224459;28;20024;-67
2022/08/24 08:31:25;;;;;;;12.27;11.27;;;;;;;-141.48;100.00;69781.59;5206502;28;20108;-67
2022/08/24 08:33:55;;;;;;;14.52;13.35;;;;;;;-141.48;100.00;69781.59;5224587;28;20107;-69
2022/08/24 08:36:26;;;;;;;12.15;10.52;;;;;;;-141.48;100.00;69781.59;5224270;28;20226;-67
2022/08/24 08:38:56;;;;;;;11.25;10.38;;;;;;;-141.48;100.00;69781.59;5224523;28;20479;-68
2022/08/24 08:41:52;;;;;;;14.63;11.15;;;;;;;-141.48;100.00;69781.59;5224619;28;20021;-67
2022/08/24 08:44:32;;;;;;;9.35;8.65;;;;;;;-141.48;100.00;69781.59;5224183;28;20033;-67
2022/08/24 08:47:38;;;;;;;8.25;7.60;;;;;;;-141.48;100.00;69781.59;5224183;28;20025;-67
2022/08/24 08:50:32;;;;;;;12.55;8.13;;;;;;;-141.48;100.00;69781.59;5191811;28;20080;-68
2022/08/24 08:53:24;;;;;;;9.52;8.88;;;;;;;-141.48;100.00;69781.59;5224244;28;20072;-67
2022/08/24 08:56:08;;;;;;;10.30;9.60;;;;;;;-141.48;100.00;69781.59;5224254;28;20031;-67
2022/08/24 08:59:08;;;;;;;11.85;11.00;;;;;;;-141.48;100.00;69781.59;5223969;28;20126;-67
2022/08/24 09:01:59;;;;;;;9.38;8.55;;;;;;;-141.48;100.00;69781.59;5224155;28;20527;-67
2022/08/24 09:04:30;;;;;;;9.88;8.88;;;;;;;-141.48;100.00;69781.59;5223985;28;20349;-67
2022/08/24 09:07:26;;;;;;;10.25;8.98;;;;;;;-141.48;100.00;69781.59;5224122;28;20017;-67
2022/08/24 09:10:34;;;;;;;13.18;12.02;;;;;;;-141.48;100.00;69781.59;5223998;28;20025;-67
2022/08/24 09:13:17;;;;;;;11.73;10.93;;;;;;;-141.48;100.00;69781.59;5206176;28;20111;-67
2022/08/24 09:16:06;;;;;;;11.07;10.38;;;;;;;-141.48;100.00;69781.59;5223881;28;20021;-66
2022/08/24 09:19:02;;;;;;;12.80;11.48;;;;;;;-141.48;100.00;69781.59;5223673;28;20032;-67
2022/08/24 09:21:51;;;;;;;14.68;11.88;;;;;;;-141.48;100.00;69781.59;5224109;28;20134;-66
2022/08/24 09:24:44;;;;;;;11.93;11.02;;;;;;;-141.48;100.00;69781.59;5205977;28;20025;-67
2022/08/24 09:27:20;;;;;;;10.27;9.27;;;;;;;-141.48;100.00;69781.59;5206147;28;20033;-66
2022/08/24 09:30:00;;;;;;;12.48;11.48;;;;;;;-141.48;100.00;69781.59;5224244;28;20017;-68
2022/08/24 09:33:04;;;;;;;9.38;8.43;;;;;;;-141.48;100.00;69781.59;5224238;28;20025;-67
2022/08/24 09:35:49;;;;;;;11.50;10.73;;;;;;;-141.48;100.00;69781.59;5223736;28;20065;-67
2022/08/24 09:39:08;;;;;;;17.08;11.15;;;;;;;-141.48;100.00;69781.59;5223724;28;20029;-66
2022/08/24 09:42:04;;;;;;;;;;;;;;;-141.48;100.00;69781.59;5160645;28;20030;-66
2022/08/24 09:44:56;;;;;;;14.65;11.57;;;;;;;-141.48;100.00;69781.59;5223687;28;19962;-66
2022/08/24 09:47:45;;;;;;;9.98;8.98;;;;;;;-141.48;100.00;69781.59;5223716;28;20342;-66
2022/08/24 09:50:40;;;;;;;9.23;8.25;;;;;;;-141.48;100.00;69781.59;5223975;28;20564;-66
2022/08/24 09:53:31;;;;;;;10.85;9.95;;;;;;;-141.48;100.00;69781.59;5223964;28;20048;-67
2022/08/24 09:56:23;;;;;;;7.47;6.97;;;;;;;-141.48;100.00;69781.59;5223926;28;20079;-67
2022/08/24 09:59:31;;;;;;;8.85;7.85;;;;;;;-141.48;100.00;69781.59;5223658;28;20032;-66
2022/08/24 10:02:23;;;;;;;8.15;7.15;;;;;;;-141.48;100.00;69781.59;5228057;28;20060;-66
2022/08/24 10:05:10;;;;;;;8.88;8.00;;;;;;;-141.48;100.00;69781.59;5227988;28;20100;-66
2022/08/24 10:08:02;;;;;;;8.13;7.38;;;;;;;-141.48;100.00;69781.59;5227848;28;20048;-66
2022/08/24 10:10:54;;;;;;;7.57;6.78;;;;;;;-141.48;100.00;69781.59;5227788;28;20399;-66
2022/08/24 10:13:24;;;;;;;6.57;5.97;;;;;;;-141.48;100.00;69781.59;5227976;28;20522;-66
2022/08/24 10:16:07;;;;;;;6.47;6.03;;;;;;;-141.48;100.00;69781.59;5227938;28;20070;-66
2022/08/24 10:19:03;;;;;;;5.93;5.53;;;;;;;-141.48;100.00;69781.59;5227488;28;20029;-66
2022/08/24 10:22:02;;;;;;;16.27;7.88;;;;;;;-141.48;100.00;69781.59;5227589;28;20097;-66
2022/08/24 10:24:38;;;;;;;6.57;5.97;;;;;;;-141.48;100.00;69781.59;5218737;28;20063;-66
2022/08/24 10:27:37;;;;;;;10.05;5.85;;;;;;;-141.48;100.00;69781.59;5226926;28;20116;-67
2022/08/24 10:30:26;;;;;;;5.75;5.40;;;;;;;-141.48;100.00;69781.59;5227212;28;20480;-66
2022/08/24 10:33:02;;;;;;;6.88;6.38;;;;;;;-141.48;100.00;69781.59;5227341;28;20020;-66
2022/08/24 10:35:39;;;;;;;5.63;5.22;;;;;;;-141.48;100.00;69781.59;5227131;28;20032;-66
2022/08/24 10:41:46;;;;;;;8.45;6.40;;;;;;;-141.48;100.00;69781.59;5227056;28;20036;-67
2022/08/24 10:44:29;;;;;;;6.22;5.65;;;;;;;-141.48;100.00;69781.59;5226253;28;20500;-66
2022/08/24 10:47:11;;;;;;;8.52;7.10;;;;;;;-141.48;100.00;69781.59;5226990;28;20095;-66
2022/08/24 10:50:00;;;;;;;6.15;5.85;;;;;;;-141.48;100.00;69781.59;5208816;28;20021;-66
2022/08/24 10:52:33;;;;;;;5.45;4.93;;;;;;;-141.48;100.00;69781.59;5226519;28;20033;-66
2022/08/24 10:55:24;;;;;;;6.05;5.57;;;;;;;-141.48;100.00;69781.59;5226205;28;20032;-67
2022/08/24 10:58:39;;;;;;;6.78;6.22;;;;;;;-141.48;100.00;69781.59;5226256;28;20024;-67
2022/08/24 11:01:34;;;;;;;10.73;6.60;;;;;;;-141.48;100.00;69781.59;5188923;28;20036;-66
2022/08/24 11:04:04;;;;;;;6.93;6.28;;;;;;;-141.48;100.00;69781.59;5213896;28;20041;-68
2022/08/24 11:06:57;;;;;;;7.00;5.90;;;;;;;-141.48;100.00;69781.59;5225467;28;20104;-67
2022/08/24 11:09:44;;;;;;;5.13;4.82;;;;;;;-141.48;100.00;69781.59;5209693;28;20040;-68
2022/08/24 11:12:41;;;;;;;7.78;4.30;;;;;;;-141.48;100.00;69781.59;5225126;28;20103;-67
2022/08/24 11:15:17;;;;;;;4.85;4.40;;;;;;;-141.48;100.00;69781.59;5224929;28;20459;-67
2022/08/24 11:18:03;;;;;;;2.85;2.75;;;;;;;-141.48;100.00;69781.59;5224772;28;20098;-67
2022/08/24 11:20:39;;;;;;;3.20;2.88;;;;;;;-141.48;100.00;69781.59;5224963;28;20481;-67
2022/08/24 11:23:22;;;;;;;3.67;3.47;;;;;;;-141.48;100.00;69781.59;5224844;28;20059;-67
2022/08/24 11:26:03;;;;;;;2.55;2.45;;;;;;;-141.48;100.00;69781.59;5224927;28;20045;-67
2022/08/24 11:28:39;;;;;;;2.90;2.70;;;;;;;-141.48;100.00;69781.59;5207196;28;20063;-67
2022/08/24 11:31:12;;;;;;;3.63;3.33;;;;;;;-141.48;100.00;69781.59;5225150;28;20060;-67
2022/08/24 11:33:51;;;;;;;22.45;4.95;;;;;;;-141.48;100.00;69781.59;5225204;28;20458;-67
2022/08/24 11:36:26;;;;;;;6.10;2.55;;;;;;;-141.48;100.00;69781.59;5224869;28;20481;-67
2022/08/24 11:39:21;;;;;;;2.40;2.30;;;;;;;-141.48;100.00;69781.59;5224774;28;20025;-67
2022/08/24 11:42:03;;;;;;;2.40;2.30;;;;;;;-141.48;100.00;69781.59;5224722;28;20094;-67
2022/08/24 11:44:59;;;;;;;3.75;2.15;;;;;;;-141.48;100.00;69781.59;5206149;28;20037;-67
2022/08/24 11:47:50;;;;;;;4.65;2.75;;;;;;;-141.48;100.00;69781.59;5206831;28;20021;-67
2022/08/24 11:50:44;;;;;;;7.03;2.65;;;;;;;-141.48;100.00;69781.59;5224829;28;20105;-67
2022/08/24 11:53:17;;;;;;;3.15;2.95;;;;;;;-141.48;100.00;69781.59;5224548;28;20021;-67